sensor_id;sensor_type;location;lat;lon;timestamp;temperature;humidity
51637;DHT22;37713;53.254;6.460;2023-05-10T00:00:27;13.60;99.90
51637;DHT22;37713;53.254;6.460;2023-05-10T00:02:53;13.60;99.90
51637;DHT22;37713;53.254;6.460;2023-05-10T00:05:18;13.60;99.90
51637;DHT22;37713;53.254;6.460;2023-05-10T00:07:44;13.50;99.90
51637;DHT22;37713;53.254;6.460;2023-05-10T00:10:11;13.50;99.90
51637;DHT22;37713;53.254;6.460;2023-05-10T00:12:37;13.50;99.90
51637;DHT22;37713;53.254;6.460;2023-05-10T00:15:03;13.50;99.90
51637;DHT22;37713;53.254;6.460;2023-05-10T00:17:29;13.50;99.90
51637;DHT22;37713;53.254;6.460;2023-05-10T00:19:55;13.50;99.90
51637;DHT22;37713;53.254;6.460;2023-05-10T00:22:21;13.50;99.90
51637;DHT22;37713;53.254;6.460;2023-05-10T00:24:47;13.40;99.90
51637;DHT22;37713;53.254;6.460;2023-05-10T00:27:12;13.40;99.90
51637;DHT22;37713;53.254;6.460;2023-05-10T00:29:38;13.40;99.90
51637;DHT22;37713;53.254;6.460;2023-05-10T00:32:04;13.40;99.90
51637;DHT22;37713;53.254;6.460;2023-05-10T00:34:30;13.40;99.90
51637;DHT22;37713;53.254;6.460;2023-05-10T00:36:56;13.40;99.90
51637;DHT22;37713;53.254;6.460;2023-05-10T00:39:22;13.40;99.90
51637;DHT22;37713;53.254;6.460;2023-05-10T00:41:48;13.30;99.90
51637;DHT22;37713;53.254;6.460;2023-05-10T00:44:13;13.30;99.90
51637;DHT22;37713;53.254;6.460;2023-05-10T00:46:40;13.30;99.90
51637;DHT22;37713;53.254;6.460;2023-05-10T00:49:06;13.30;99.90
51637;DHT22;37713;53.254;6.460;2023-05-10T00:51:32;13.30;99.90
51637;DHT22;37713;53.254;6.460;2023-05-10T00:53:58;13.20;99.90
51637;DHT22;37713;53.254;6.460;2023-05-10T00:56:25;13.20;99.90
51637;DHT22;37713;53.254;6.460;2023-05-10T00:58:51;13.20;99.90
51637;DHT22;37713;53.254;6.460;2023-05-10T01:01:17;13.10;99.90
51637;DHT22;37713;53.254;6.460;2023-05-10T01:03:43;13.20;99.90
51637;DHT22;37713;53.254;6.460;2023-05-10T01:06:09;13.10;99.90
51637;DHT22;37713;53.254;6.460;2023-05-10T01:08:36;13.10;99.90
51637;DHT22;37713;53.254;6.460;2023-05-10T01:11:02;13.10;99.90
51637;DHT22;37713;53.254;6.460;2023-05-10T01:13:39;13.10;99.90
51637;DHT22;37713;53.254;6.460;2023-05-10T01:16:06;13.10;99.90
51637;DHT22;37713;53.254;6.460;2023-05-10T01:18:39;13.00;99.90
51637;DHT22;37713;53.254;6.460;2023-05-10T01:21:19;13.00;99.90
51637;DHT22;37713;53.254;6.460;2023-05-10T01:32:26;12.90;99.90
51637;DHT22;37713;53.254;6.460;2023-05-10T01:37:28;12.90;99.90
51637;DHT22;37713;53.254;6.460;2023-05-10T01:40:18;12.90;99.90
51637;DHT22;37713;53.254;6.460;2023-05-10T01:42:50;12.80;99.90
51637;DHT22;37713;53.254;6.460;2023-05-10T01:45:35;12.80;99.90
51637;DHT22;37713;53.254;6.460;2023-05-10T01:48:08;12.80;99.90
51637;DHT22;37713;53.254;6.460;2023-05-10T01:50:37;12.80;99.90
51637;DHT22;37713;53.254;6.460;2023-05-10T01:53:06;12.80;99.90
51637;DHT22;37713;53.254;6.460;2023-05-10T01:55:55;12.70;99.90
51637;DHT22;37713;53.254;6.460;2023-05-10T01:58:24;12.80;99.90
51637;DHT22;37713;53.254;6.460;2023-05-10T02:00:52;12.80;99.90
51637;DHT22;37713;53.254;6.460;2023-05-10T02:03:23;12.80;99.90
51637;DHT22;37713;53.254;6.460;2023-05-10T02:05:49;12.80;99.90
51637;DHT22;37713;53.254;6.460;2023-05-10T02:08:17;12.80;99.90
51637;DHT22;37713;53.254;6.460;2023-05-10T02:10:45;12.80;99.90
51637;DHT22;37713;53.254;6.460;2023-05-10T02:13:13;12.80;99.90
51637;DHT22;37713;53.254;6.460;2023-05-10T02:15:40;12.70;99.90
51637;DHT22;37713;53.254;6.460;2023-05-10T02:18:07;12.80;99.90
51637;DHT22;37713;53.254;6.460;2023-05-10T02:20:35;12.80;99.90
51637;DHT22;37713;53.254;6.460;2023-05-10T02:23:04;12.70;99.90
51637;DHT22;37713;53.254;6.460;2023-05-10T02:25:31;12.70;99.90
51637;DHT22;37713;53.254;6.460;2023-05-10T02:28:01;12.70;99.90
51637;DHT22;37713;53.254;6.460;2023-05-10T02:30:28;12.70;99.90
51637;DHT22;37713;53.254;6.460;2023-05-10T02:32:56;12.70;99.90
51637;DHT22;37713;53.254;6.460;2023-05-10T02:35:23;12.60;99.90
51637;DHT22;37713;53.254;6.460;2023-05-10T02:37:50;12.60;99.90
51637;DHT22;37713;53.254;6.460;2023-05-10T02:40:18;12.60;99.90
51637;DHT22;37713;53.254;6.460;2023-05-10T02:42:47;12.60;99.90
51637;DHT22;37713;53.254;6.460;2023-05-10T02:45:19;12.60;99.90
51637;DHT22;37713;53.254;6.460;2023-05-10T02:47:45;12.60;99.90
51637;DHT22;37713;53.254;6.460;2023-05-10T02:50:11;12.50;99.90
51637;DHT22;37713;53.254;6.460;2023-05-10T02:52:44;12.50;99.90
51637;DHT22;37713;53.254;6.460;2023-05-10T02:55:14;12.50;99.90
51637;DHT22;37713;53.254;6.460;2023-05-10T02:57:51;12.50;99.90
51637;DHT22;37713;53.254;6.460;2023-05-10T03:00:17;12.50;99.90
51637;DHT22;37713;53.254;6.460;2023-05-10T03:02:43;12.50;99.90
51637;DHT22;37713;53.254;6.460;2023-05-10T03:05:09;12.40;99.90
51637;DHT22;37713;53.254;6.460;2023-05-10T03:07:35;12.50;99.90
51637;DHT22;37713;53.254;6.460;2023-05-10T03:10:01;12.50;99.90
51637;DHT22;37713;53.254;6.460;2023-05-10T03:15:07;12.50;99.90
51637;DHT22;37713;53.254;6.460;2023-05-10T03:17:47;12.50;99.90
51637;DHT22;37713;53.254;6.460;2023-05-10T03:20:24;12.50;99.90
51637;DHT22;37713;53.254;6.460;2023-05-10T03:22:55;12.50;99.90
51637;DHT22;37713;53.254;6.460;2023-05-10T03:25:21;12.50;99.90
51637;DHT22;37713;53.254;6.460;2023-05-10T03:27:48;12.40;99.90
51637;DHT22;37713;53.254;6.460;2023-05-10T03:30:15;12.40;99.90
51637;DHT22;37713;53.254;6.460;2023-05-10T03:32:41;12.40;99.90
51637;DHT22;37713;53.254;6.460;2023-05-10T03:35:08;12.50;99.90
51637;DHT22;37713;53.254;6.460;2023-05-10T03:37:34;12.50;99.90
51637;DHT22;37713;53.254;6.460;2023-05-10T03:40:01;12.50;99.90
51637;DHT22;37713;53.254;6.460;2023-05-10T03:42:27;12.50;99.90
51637;DHT22;37713;53.254;6.460;2023-05-10T03:44:52;12.40;99.90
51637;DHT22;37713;53.254;6.460;2023-05-10T03:47:18;12.50;99.90
51637;DHT22;37713;53.254;6.460;2023-05-10T03:49:44;12.50;99.90
51637;DHT22;37713;53.254;6.460;2023-05-10T03:52:10;12.40;99.90
51637;DHT22;37713;53.254;6.460;2023-05-10T03:54:35;12.40;99.90
51637;DHT22;37713;53.254;6.460;2023-05-10T03:57:01;12.40;99.90
51637;DHT22;37713;53.254;6.460;2023-05-10T03:59:28;12.40;99.90
51637;DHT22;37713;53.254;6.460;2023-05-10T04:01:54;12.40;99.90
51637;DHT22;37713;53.254;6.460;2023-05-10T04:04:20;12.40;99.90
51637;DHT22;37713;53.254;6.460;2023-05-10T04:06:46;12.40;99.90
51637;DHT22;37713;53.254;6.460;2023-05-10T04:09:12;12.40;99.90
51637;DHT22;37713;53.254;6.460;2023-05-10T04:11:38;12.40;99.90
51637;DHT22;37713;53.254;6.460;2023-05-10T04:14:04;12.40;99.90
51637;DHT22;37713;53.254;6.460;2023-05-10T04:16:29;12.40;99.90
51637;DHT22;37713;53.254;6.460;2023-05-10T04:18:55;12.40;99.90
51637;DHT22;37713;53.254;6.460;2023-05-10T04:21:21;12.50;99.90
51637;DHT22;37713;53.254;6.460;2023-05-10T04:23:47;12.50;99.90
51637;DHT22;37713;53.254;6.460;2023-05-10T04:26:13;12.50;99.90
51637;DHT22;37713;53.254;6.460;2023-05-10T04:28:39;12.50;99.90
51637;DHT22;37713;53.254;6.460;2023-05-10T04:31:06;12.50;99.90
51637;DHT22;37713;53.254;6.460;2023-05-10T04:33:32;12.50;99.90
51637;DHT22;37713;53.254;6.460;2023-05-10T04:35:59;12.40;99.90
51637;DHT22;37713;53.254;6.460;2023-05-10T04:38:25;12.50;99.90
51637;DHT22;37713;53.254;6.460;2023-05-10T04:40:51;12.50;99.90
51637;DHT22;37713;53.254;6.460;2023-05-10T04:43:17;12.50;99.90
51637;DHT22;37713;53.254;6.460;2023-05-10T04:45:42;12.50;99.90
51637;DHT22;37713;53.254;6.460;2023-05-10T04:48:08;12.50;99.90
51637;DHT22;37713;53.254;6.460;2023-05-10T04:50:34;12.50;99.90
51637;DHT22;37713;53.254;6.460;2023-05-10T04:53:00;12.50;99.90
51637;DHT22;37713;53.254;6.460;2023-05-10T04:55:26;12.40;99.90
51637;DHT22;37713;53.254;6.460;2023-05-10T04:57:52;12.50;99.90
51637;DHT22;37713;53.254;6.460;2023-05-10T05:00:20;12.40;99.90
51637;DHT22;37713;53.254;6.460;2023-05-10T05:02:46;12.50;99.90
51637;DHT22;37713;53.254;6.460;2023-05-10T05:05:12;12.50;99.90
51637;DHT22;37713;53.254;6.460;2023-05-10T05:07:38;12.50;99.90
51637;DHT22;37713;53.254;6.460;2023-05-10T05:10:08;12.50;99.90
51637;DHT22;37713;53.254;6.460;2023-05-10T05:12:34;12.50;99.90
51637;DHT22;37713;53.254;6.460;2023-05-10T05:15:01;12.50;99.90
51637;DHT22;37713;53.254;6.460;2023-05-10T05:17:27;12.50;99.90
51637;DHT22;37713;53.254;6.460;2023-05-10T05:19:53;12.50;99.90
51637;DHT22;37713;53.254;6.460;2023-05-10T05:22:19;12.50;99.90
51637;DHT22;37713;53.254;6.460;2023-05-10T05:24:52;12.60;99.90
51637;DHT22;37713;53.254;6.460;2023-05-10T05:27:18;12.60;99.90
51637;DHT22;37713;53.254;6.460;2023-05-10T05:29:46;12.50;99.90
51637;DHT22;37713;53.254;6.460;2023-05-10T05:32:12;12.50;99.90
51637;DHT22;37713;53.254;6.460;2023-05-10T05:34:37;12.60;99.90
51637;DHT22;37713;53.254;6.460;2023-05-10T05:37:03;12.60;99.90
51637;DHT22;37713;53.254;6.460;2023-05-10T05:39:29;12.60;99.90
51637;DHT22;37713;53.254;6.460;2023-05-10T05:41:55;12.60;99.90
51637;DHT22;37713;53.254;6.460;2023-05-10T05:44:20;12.70;99.90
51637;DHT22;37713;53.254;6.460;2023-05-10T05:46:46;12.70;99.90
51637;DHT22;37713;53.254;6.460;2023-05-10T05:49:12;12.70;99.90
51637;DHT22;37713;53.254;6.460;2023-05-10T05:51:38;12.70;99.90
51637;DHT22;37713;53.254;6.460;2023-05-10T05:54:03;12.70;99.90
51637;DHT22;37713;53.254;6.460;2023-05-10T05:56:30;12.70;99.90
51637;DHT22;37713;53.254;6.460;2023-05-10T05:58:55;12.70;99.90
51637;DHT22;37713;53.254;6.460;2023-05-10T06:01:21;12.70;99.90
51637;DHT22;37713;53.254;6.460;2023-05-10T06:03:47;12.80;99.90
51637;DHT22;37713;53.254;6.460;2023-05-10T06:06:13;12.70;99.90
51637;DHT22;37713;53.254;6.460;2023-05-10T06:08:38;12.70;99.90
51637;DHT22;37713;53.254;6.460;2023-05-10T06:11:04;12.70;99.90
51637;DHT22;37713;53.254;6.460;2023-05-10T06:13:30;12.70;99.90
51637;DHT22;37713;53.254;6.460;2023-05-10T06:16:02;12.70;99.90
51637;DHT22;37713;53.254;6.460;2023-05-10T06:18:27;12.70;99.90
51637;DHT22;37713;53.254;6.460;2023-05-10T06:20:53;12.70;99.90
51637;DHT22;37713;53.254;6.460;2023-05-10T06:23:19;12.60;99.90
51637;DHT22;37713;53.254;6.460;2023-05-10T06:25:45;12.60;99.90
51637;DHT22;37713;53.254;6.460;2023-05-10T06:28:10;12.60;99.90
51637;DHT22;37713;53.254;6.460;2023-05-10T06:30:36;12.50;99.90
51637;DHT22;37713;53.254;6.460;2023-05-10T06:33:02;12.50;99.90
51637;DHT22;37713;53.254;6.460;2023-05-10T06:35:29;12.50;99.90
51637;DHT22;37713;53.254;6.460;2023-05-10T06:37:55;12.50;99.90
51637;DHT22;37713;53.254;6.460;2023-05-10T06:40:21;12.50;99.90
51637;DHT22;37713;53.254;6.460;2023-05-10T06:42:47;12.50;99.90
51637;DHT22;37713;53.254;6.460;2023-05-10T06:45:14;12.50;99.90
51637;DHT22;37713;53.254;6.460;2023-05-10T06:47:41;12.40;99.90
51637;DHT22;37713;53.254;6.460;2023-05-10T06:50:08;12.40;99.90
51637;DHT22;37713;53.254;6.460;2023-05-10T06:52:34;12.50;99.90
51637;DHT22;37713;53.254;6.460;2023-05-10T06:55:00;12.50;99.90
51637;DHT22;37713;53.254;6.460;2023-05-10T06:57:26;12.60;99.90
51637;DHT22;37713;53.254;6.460;2023-05-10T06:59:51;12.60;99.90
51637;DHT22;37713;53.254;6.460;2023-05-10T07:02:17;12.60;99.90
51637;DHT22;37713;53.254;6.460;2023-05-10T07:04:43;12.60;99.90
51637;DHT22;37713;53.254;6.460;2023-05-10T07:07:09;12.70;99.90
51637;DHT22;37713;53.254;6.460;2023-05-10T07:09:35;12.70;99.90
51637;DHT22;37713;53.254;6.460;2023-05-10T07:12:01;12.70;99.90
51637;DHT22;37713;53.254;6.460;2023-05-10T07:14:27;12.70;99.90
51637;DHT22;37713;53.254;6.460;2023-05-10T07:16:53;12.80;99.90
51637;DHT22;37713;53.254;6.460;2023-05-10T07:19:19;12.70;99.90
51637;DHT22;37713;53.254;6.460;2023-05-10T07:21:45;12.80;99.90
51637;DHT22;37713;53.254;6.460;2023-05-10T07:24:11;12.80;99.90
51637;DHT22;37713;53.254;6.460;2023-05-10T07:26:36;12.80;99.90
51637;DHT22;37713;53.254;6.460;2023-05-10T07:29:02;12.80;99.90
51637;DHT22;37713;53.254;6.460;2023-05-10T07:31:28;12.90;99.90
51637;DHT22;37713;53.254;6.460;2023-05-10T07:33:54;13.00;99.90
51637;DHT22;37713;53.254;6.460;2023-05-10T07:36:20;13.00;99.90
51637;DHT22;37713;53.254;6.460;2023-05-10T07:38:46;13.10;99.90
51637;DHT22;37713;53.254;6.460;2023-05-10T07:41:12;13.00;99.90
51637;DHT22;37713;53.254;6.460;2023-05-10T07:43:38;13.10;99.90
51637;DHT22;37713;53.254;6.460;2023-05-10T07:46:04;13.10;99.90
51637;DHT22;37713;53.254;6.460;2023-05-10T07:48:30;13.10;99.90
51637;DHT22;37713;53.254;6.460;2023-05-10T07:50:56;13.10;99.90
51637;DHT22;37713;53.254;6.460;2023-05-10T07:53:22;13.20;99.90
51637;DHT22;37713;53.254;6.460;2023-05-10T07:55:52;13.20;99.90
51637;DHT22;37713;53.254;6.460;2023-05-10T07:58:20;13.10;99.90
51637;DHT22;37713;53.254;6.460;2023-05-10T08:00:46;13.10;99.90
51637;DHT22;37713;53.254;6.460;2023-05-10T08:03:11;13.10;99.90
51637;DHT22;37713;53.254;6.460;2023-05-10T08:05:37;13.10;99.90
51637;DHT22;37713;53.254;6.460;2023-05-10T08:08:06;13.10;99.90
51637;DHT22;37713;53.254;6.460;2023-05-10T08:10:32;13.20;99.90
51637;DHT22;37713;53.254;6.460;2023-05-10T08:12:58;13.20;99.90
51637;DHT22;37713;53.254;6.460;2023-05-10T08:15:26;13.20;99.90
51637;DHT22;37713;53.254;6.460;2023-05-10T08:17:52;13.20;99.90
51637;DHT22;37713;53.254;6.460;2023-05-10T08:20:18;13.20;99.90
51637;DHT22;37713;53.254;6.460;2023-05-10T08:22:47;13.10;99.90
51637;DHT22;37713;53.254;6.460;2023-05-10T08:25:13;13.20;99.90
51637;DHT22;37713;53.254;6.460;2023-05-10T08:27:39;13.20;99.90
51637;DHT22;37713;53.254;6.460;2023-05-10T08:30:05;13.30;99.90
51637;DHT22;37713;53.254;6.460;2023-05-10T08:32:31;13.30;99.90
51637;DHT22;37713;53.254;6.460;2023-05-10T08:34:57;13.30;99.90
51637;DHT22;37713;53.254;6.460;2023-05-10T08:37:23;13.30;99.90
51637;DHT22;37713;53.254;6.460;2023-05-10T08:39:49;13.30;99.90
51637;DHT22;37713;53.254;6.460;2023-05-10T08:42:19;13.40;99.90
51637;DHT22;37713;53.254;6.460;2023-05-10T08:44:48;13.30;99.90
51637;DHT22;37713;53.254;6.460;2023-05-10T08:47:16;13.40;99.90
51637;DHT22;37713;53.254;6.460;2023-05-10T08:49:44;13.30;99.90
51637;DHT22;37713;53.254;6.460;2023-05-10T08:52:13;13.20;99.90
51637;DHT22;37713;53.254;6.460;2023-05-10T08:54:41;13.20;99.90
51637;DHT22;37713;53.254;6.460;2023-05-10T08:57:07;13.20;99.90
51637;DHT22;37713;53.254;6.460;2023-05-10T08:59:33;13.20;99.90
51637;DHT22;37713;53.254;6.460;2023-05-10T09:01:59;13.20;99.90
51637;DHT22;37713;53.254;6.460;2023-05-10T09:04:25;13.30;99.90
51637;DHT22;37713;53.254;6.460;2023-05-10T09:06:51;13.40;99.90
51637;DHT22;37713;53.254;6.460;2023-05-10T09:09:18;13.40;99.90
51637;DHT22;37713;53.254;6.460;2023-05-10T09:11:45;13.50;99.90
51637;DHT22;37713;53.254;6.460;2023-05-10T09:14:15;13.60;99.90
51637;DHT22;37713;53.254;6.460;2023-05-10T09:16:41;13.60;99.90
51637;DHT22;37713;53.254;6.460;2023-05-10T09:19:07;13.70;99.90
51637;DHT22;37713;53.254;6.460;2023-05-10T09:21:35;13.90;99.90
51637;DHT22;37713;53.254;6.460;2023-05-10T09:24:05;14.00;99.90
51637;DHT22;37713;53.254;6.460;2023-05-10T09:26:31;14.10;99.90
51637;DHT22;37713;53.254;6.460;2023-05-10T09:28:59;14.20;99.90
51637;DHT22;37713;53.254;6.460;2023-05-10T09:31:49;14.40;99.90
51637;DHT22;37713;53.254;6.460;2023-05-10T09:34:30;14.50;99.90
51637;DHT22;37713;53.254;6.460;2023-05-10T09:37:01;14.60;99.90
51637;DHT22;37713;53.254;6.460;2023-05-10T09:39:38;14.80;99.90
51637;DHT22;37713;53.254;6.460;2023-05-10T09:42:06;14.80;99.90
51637;DHT22;37713;53.254;6.460;2023-05-10T09:44:33;14.80;99.90
51637;DHT22;37713;53.254;6.460;2023-05-10T09:47:03;14.90;99.90
51637;DHT22;37713;53.254;6.460;2023-05-10T09:49:29;15.00;99.90
51637;DHT22;37713;53.254;6.460;2023-05-10T09:52:05;15.10;99.90
51637;DHT22;37713;53.254;6.460;2023-05-10T09:54:32;15.20;99.90
51637;DHT22;37713;53.254;6.460;2023-05-10T09:56:59;15.30;99.90
51637;DHT22;37713;53.254;6.460;2023-05-10T09:59:26;15.40;99.90
51637;DHT22;37713;53.254;6.460;2023-05-10T10:01:55;15.50;99.90
51637;DHT22;37713;53.254;6.460;2023-05-10T10:04:21;15.60;99.90
51637;DHT22;37713;53.254;6.460;2023-05-10T10:06:47;15.60;99.90
51637;DHT22;37713;53.254;6.460;2023-05-10T10:09:24;15.70;99.90
51637;DHT22;37713;53.254;6.460;2023-05-10T10:11:50;15.70;99.90
51637;DHT22;37713;53.254;6.460;2023-05-10T10:14:18;15.60;99.90
51637;DHT22;37713;53.254;6.460;2023-05-10T10:16:44;15.50;99.90
51637;DHT22;37713;53.254;6.460;2023-05-10T10:19:10;15.50;99.90
51637;DHT22;37713;53.254;6.460;2023-05-10T10:21:36;15.50;99.90
51637;DHT22;37713;53.254;6.460;2023-05-10T10:24:02;15.40;99.90
51637;DHT22;37713;53.254;6.460;2023-05-10T10:26:31;15.40;99.90
51637;DHT22;37713;53.254;6.460;2023-05-10T10:34:49;15.50;99.90
51637;DHT22;37713;53.254;6.460;2023-05-10T10:37:15;15.60;99.90
51637;DHT22;37713;53.254;6.460;2023-05-10T10:39:41;15.60;99.90
51637;DHT22;37713;53.254;6.460;2023-05-10T10:42:07;15.50;99.90
51637;DHT22;37713;53.254;6.460;2023-05-10T10:44:37;15.50;99.90
51637;DHT22;37713;53.254;6.460;2023-05-10T10:47:28;15.50;99.90
51637;DHT22;37713;53.254;6.460;2023-05-10T10:52:30;15.30;99.90
51637;DHT22;37713;53.254;6.460;2023-05-10T10:55:06;15.30;99.90
51637;DHT22;37713;53.254;6.460;2023-05-10T10:57:48;15.30;99.90
51637;DHT22;37713;53.254;6.460;2023-05-10T11:00:31;15.40;99.90
51637;DHT22;37713;53.254;6.460;2023-05-10T11:03:09;15.40;99.90
51637;DHT22;37713;53.254;6.460;2023-05-10T11:05:41;15.50;99.90
51637;DHT22;37713;53.254;6.460;2023-05-10T11:10:36;15.80;99.90
51637;DHT22;37713;53.254;6.460;2023-05-10T11:13:03;16.00;99.90
51637;DHT22;37713;53.254;6.460;2023-05-10T11:15:34;16.00;99.90
51637;DHT22;37713;53.254;6.460;2023-05-10T11:18:31;16.00;99.90
51637;DHT22;37713;53.254;6.460;2023-05-10T11:21:01;16.00;99.90
51637;DHT22;37713;53.254;6.460;2023-05-10T11:23:55;16.00;99.90
51637;DHT22;37713;53.254;6.460;2023-05-10T11:26:29;16.10;99.90
51637;DHT22;37713;53.254;6.460;2023-05-10T11:28:56;16.20;99.90
51637;DHT22;37713;53.254;6.460;2023-05-10T11:31:22;16.30;99.90
51637;DHT22;37713;53.254;6.460;2023-05-10T11:33:51;16.20;99.90
51637;DHT22;37713;53.254;6.460;2023-05-10T11:36:19;16.30;99.90
51637;DHT22;37713;53.254;6.460;2023-05-10T11:38:46;16.40;99.90
51637;DHT22;37713;53.254;6.460;2023-05-10T11:41:13;16.40;99.90
51637;DHT22;37713;53.254;6.460;2023-05-10T11:43:39;16.30;99.90
51637;DHT22;37713;53.254;6.460;2023-05-10T11:46:11;16.40;99.90
51637;DHT22;37713;53.254;6.460;2023-05-10T11:48:41;16.40;99.90
51637;DHT22;37713;53.254;6.460;2023-05-10T11:51:08;16.40;99.90
51637;DHT22;37713;53.254;6.460;2023-05-10T11:53:34;16.30;99.90
51637;DHT22;37713;53.254;6.460;2023-05-10T11:56:10;16.20;99.90
51637;DHT22;37713;53.254;6.460;2023-05-10T11:58:37;16.20;99.90
51637;DHT22;37713;53.254;6.460;2023-05-10T12:01:04;16.10;99.90
51637;DHT22;37713;53.254;6.460;2023-05-10T12:03:31;16.00;99.90
51637;DHT22;37713;53.254;6.460;2023-05-10T12:05:57;15.90;99.90
51637;DHT22;37713;53.254;6.460;2023-05-10T12:08:25;15.80;99.90
51637;DHT22;37713;53.254;6.460;2023-05-10T12:10:53;15.70;99.90
51637;DHT22;37713;53.254;6.460;2023-05-10T12:13:28;15.70;99.90
51637;DHT22;37713;53.254;6.460;2023-05-10T12:15:57;15.60;99.90
51637;DHT22;37713;53.254;6.460;2023-05-10T12:18:23;15.60;99.90
51637;DHT22;37713;53.254;6.460;2023-05-10T12:20:53;15.60;99.90
51637;DHT22;37713;53.254;6.460;2023-05-10T12:23:20;15.60;99.90
51637;DHT22;37713;53.254;6.460;2023-05-10T12:25:46;15.70;99.90
51637;DHT22;37713;53.254;6.460;2023-05-10T12:28:12;15.70;99.90
51637;DHT22;37713;53.254;6.460;2023-05-10T12:30:38;15.70;99.90
51637;DHT22;37713;53.254;6.460;2023-05-10T12:33:12;15.70;99.90
51637;DHT22;37713;53.254;6.460;2023-05-10T12:35:54;15.80;99.90
51637;DHT22;37713;53.254;6.460;2023-05-10T12:38:32;15.90;99.90
51637;DHT22;37713;53.254;6.460;2023-05-10T12:41:00;15.90;99.90
51637;DHT22;37713;53.254;6.460;2023-05-10T12:43:26;15.90;99.90
51637;DHT22;37713;53.254;6.460;2023-05-10T12:45:52;15.90;99.90
51637;DHT22;37713;53.254;6.460;2023-05-10T12:48:18;15.90;99.90
51637;DHT22;37713;53.254;6.460;2023-05-10T12:50:44;15.80;99.90
51637;DHT22;37713;53.254;6.460;2023-05-10T12:53:10;15.90;99.90
51637;DHT22;37713;53.254;6.460;2023-05-10T12:55:36;15.90;99.90
51637;DHT22;37713;53.254;6.460;2023-05-10T12:58:05;15.90;99.90
51637;DHT22;37713;53.254;6.460;2023-05-10T13:00:31;16.00;99.90
51637;DHT22;37713;53.254;6.460;2023-05-10T13:02:56;16.20;99.90
51637;DHT22;37713;53.254;6.460;2023-05-10T13:05:22;16.30;99.90
51637;DHT22;37713;53.254;6.460;2023-05-10T13:07:48;16.30;99.90
51637;DHT22;37713;53.254;6.460;2023-05-10T13:10:14;16.40;99.90
51637;DHT22;37713;53.254;6.460;2023-05-10T13:12:39;16.60;99.90
51637;DHT22;37713;53.254;6.460;2023-05-10T13:15:06;16.60;99.90
51637;DHT22;37713;53.254;6.460;2023-05-10T13:17:32;16.80;99.90
51637;DHT22;37713;53.254;6.460;2023-05-10T13:19:57;16.80;99.90
51637;DHT22;37713;53.254;6.460;2023-05-10T13:22:23;16.90;99.90
51637;DHT22;37713;53.254;6.460;2023-05-10T13:24:49;17.00;99.90
51637;DHT22;37713;53.254;6.460;2023-05-10T13:27:15;16.90;99.90
51637;DHT22;37713;53.254;6.460;2023-05-10T13:29:41;17.00;99.90
51637;DHT22;37713;53.254;6.460;2023-05-10T13:32:06;16.90;99.90
51637;DHT22;37713;53.254;6.460;2023-05-10T13:34:32;16.90;99.90
51637;DHT22;37713;53.254;6.460;2023-05-10T13:36:58;16.90;99.90
51637;DHT22;37713;53.254;6.460;2023-05-10T13:39:24;16.80;99.90
51637;DHT22;37713;53.254;6.460;2023-05-10T13:41:50;16.90;99.90
51637;DHT22;37713;53.254;6.460;2023-05-10T13:44:16;16.90;99.90
51637;DHT22;37713;53.254;6.460;2023-05-10T13:46:41;16.80;99.90
51637;DHT22;37713;53.254;6.460;2023-05-10T13:49:09;16.90;99.90
51637;DHT22;37713;53.254;6.460;2023-05-10T13:51:35;16.80;99.90
51637;DHT22;37713;53.254;6.460;2023-05-10T13:54:01;16.90;99.90
51637;DHT22;37713;53.254;6.460;2023-05-10T13:56:27;16.80;99.90
51637;DHT22;37713;53.254;6.460;2023-05-10T13:58:53;16.70;99.90
51637;DHT22;37713;53.254;6.460;2023-05-10T14:01:19;16.70;99.90
51637;DHT22;37713;53.254;6.460;2023-05-10T14:03:45;16.80;99.90
51637;DHT22;37713;53.254;6.460;2023-05-10T14:06:13;16.80;99.90
51637;DHT22;37713;53.254;6.460;2023-05-10T14:08:39;16.80;99.90
51637;DHT22;37713;53.254;6.460;2023-05-10T14:11:05;16.80;99.90
51637;DHT22;37713;53.254;6.460;2023-05-10T14:13:31;16.70;99.90
51637;DHT22;37713;53.254;6.460;2023-05-10T14:15:57;16.70;99.90
51637;DHT22;37713;53.254;6.460;2023-05-10T14:18:24;16.70;99.90
51637;DHT22;37713;53.254;6.460;2023-05-10T14:20:50;16.70;99.90
51637;DHT22;37713;53.254;6.460;2023-05-10T14:23:15;16.70;99.90
51637;DHT22;37713;53.254;6.460;2023-05-10T14:25:41;16.60;99.90
51637;DHT22;37713;53.254;6.460;2023-05-10T14:28:07;16.60;99.90
51637;DHT22;37713;53.254;6.460;2023-05-10T14:30:33;16.70;99.90
51637;DHT22;37713;53.254;6.460;2023-05-10T14:33:01;16.80;99.90
51637;DHT22;37713;53.254;6.460;2023-05-10T14:35:28;16.80;99.90
51637;DHT22;37713;53.254;6.460;2023-05-10T14:37:56;16.90;99.90
51637;DHT22;37713;53.254;6.460;2023-05-10T14:40:23;17.00;99.90
51637;DHT22;37713;53.254;6.460;2023-05-10T14:42:49;17.00;99.90
51637;DHT22;37713;53.254;6.460;2023-05-10T14:45:15;16.80;99.90
51637;DHT22;37713;53.254;6.460;2023-05-10T14:47:41;17.00;99.90
51637;DHT22;37713;53.254;6.460;2023-05-10T14:50:08;17.00;99.90
51637;DHT22;37713;53.254;6.460;2023-05-10T14:52:33;17.10;99.90
51637;DHT22;37713;53.254;6.460;2023-05-10T14:54:59;17.10;99.90
51637;DHT22;37713;53.254;6.460;2023-05-10T14:57:26;17.10;99.90
51637;DHT22;37713;53.254;6.460;2023-05-10T14:59:55;17.20;99.90
51637;DHT22;37713;53.254;6.460;2023-05-10T15:02:21;17.20;99.90
51637;DHT22;37713;53.254;6.460;2023-05-10T15:04:47;17.10;99.90
51637;DHT22;37713;53.254;6.460;2023-05-10T15:07:13;17.00;99.90
51637;DHT22;37713;53.254;6.460;2023-05-10T15:09:41;17.00;99.90
51637;DHT22;37713;53.254;6.460;2023-05-10T15:12:06;16.90;99.90
51637;DHT22;37713;53.254;6.460;2023-05-10T15:14:32;16.80;99.90
51637;DHT22;37713;53.254;6.460;2023-05-10T15:16:59;16.80;99.90
51637;DHT22;37713;53.254;6.460;2023-05-10T15:19:25;16.60;99.90
51637;DHT22;37713;53.254;6.460;2023-05-10T15:21:51;16.50;99.90
51637;DHT22;37713;53.254;6.460;2023-05-10T15:24:16;16.30;99.90
51637;DHT22;37713;53.254;6.460;2023-05-10T15:26:42;16.10;99.90
51637;DHT22;37713;53.254;6.460;2023-05-10T15:29:08;15.90;99.90
51637;DHT22;37713;53.254;6.460;2023-05-10T15:31:34;15.90;99.90
51637;DHT22;37713;53.254;6.460;2023-05-10T15:34:02;15.80;99.90
51637;DHT22;37713;53.254;6.460;2023-05-10T15:36:28;15.90;99.90
51637;DHT22;37713;53.254;6.460;2023-05-10T15:38:54;15.80;99.90
51637;DHT22;37713;53.254;6.460;2023-05-10T15:41:20;15.90;99.90
51637;DHT22;37713;53.254;6.460;2023-05-10T15:43:46;15.90;99.90
51637;DHT22;37713;53.254;6.460;2023-05-10T15:46:12;15.80;99.90
51637;DHT22;37713;53.254;6.460;2023-05-10T15:48:37;15.70;99.90
51637;DHT22;37713;53.254;6.460;2023-05-10T15:51:04;15.60;99.90
51637;DHT22;37713;53.254;6.460;2023-05-10T15:53:30;15.70;99.90
51637;DHT22;37713;53.254;6.460;2023-05-10T15:55:56;15.70;99.90